Time;durP1;ratioP1;P1;durP2;ratioP2;P2;SDS_P1;SDS_P2;PMS_P1;PMS_P2;Temp;Humidity;BMP_temperature;BMP_pressure;BME280_temperature;BME280_humidity;BME280_pressure;Samples;Min_cycle;Max_cycle;Signal;HPM_P1;HPM_P2
2021/01/11 00:00:44;;;;;;;26.17;15.10;;;2.90;99.90;;;;;;5014498;28;20298;-82
2021/01/11 00:03:10;;;;;;;31.30;16.70;;;2.80;99.90;;;;;;5013908;28;20289;-87
2021/01/11 00:05:38;;;;;;;23.90;16.17;;;2.80;99.90;;;;;;5013626;28;20540;-83
2021/01/11 00:08:05;;;;;;;24.77;14.83;;;2.80;99.90;;;;;;5014470;28;20577;-83
2021/01/11 00:10:31;;;;;;;23.60;14.95;;;2.80;99.90;;;;;;5013936;28;20454;-83
2021/01/11 00:12:58;;;;;;;22.40;15.43;;;2.70;99.90;;;;;;5013712;28;20300;-82
2021/01/11 00:15:26;;;;;;;20.85;16.17;;;2.70;99.90;;;;;;5013298;28;20450;-83
2021/01/11 00:17:53;;;;;;;23.38;16.48;;;2.70;99.90;;;;;;5014308;28;20756;-82
2021/01/11 00:20:24;;;;;;;27.15;17.48;;;2.80;99.90;;;;;;5014107;28;20233;-83
2021/01/11 00:22:50;;;;;;;26.57;17.60;;;2.70;99.90;;;;;;5014182;28;20199;-82
2021/01/11 00:25:19;;;;;;;29.02;19.33;;;2.60;99.90;;;;;;5013804;28;20541;-83
2021/01/11 00:27:45;;;;;;;28.63;17.93;;;2.50;99.90;;;;;;5013323;28;20690;-83
2021/01/11 00:30:12;;;;;;;24.55;16.42;;;2.50;99.90;;;;;;5013478;28;20993;-89
2021/01/11 00:32:41;;;;;;;36.65;20.65;;;2.60;99.90;;;;;;5013936;28;20590;-83
2021/01/11 00:35:12;;;;;;;30.38;18.23;;;2.60;99.90;;;;;;5013416;28;20328;-83
2021/01/11 00:37:44;;;;;;;28.83;18.40;;;2.60;99.90;;;;;;5013535;28;20702;-83
2021/01/11 00:40:11;;;;;;;29.13;19.10;;;2.70;99.90;;;;;;5013440;28;20701;-88
2021/01/11 00:42:37;;;;;;;24.20;16.38;;;2.70;99.90;;;;;;5017237;28;20454;-83
2021/01/11 00:45:05;;;;;;;27.13;17.40;;;2.80;99.90;;;;;;5017754;28;20207;-83
2021/01/11 00:47:34;;;;;;;26.65;19.17;;;2.80;99.90;;;;;;5016811;28;21140;-83
2021/01/11 00:50:03;;;;;;;29.00;18.60;;;2.70;99.90;;;;;;5017232;28;20222;-83
2021/01/11 00:52:30;;;;;;;29.73;17.00;;;2.60;99.90;;;;;;5017335;28;20465;-83
2021/01/11 00:54:56;;;;;;;27.37;16.13;;;2.70;99.90;;;;;;5017566;28;20293;-83
2021/01/11 00:57:25;;;;;;;24.63;17.83;;;2.70;99.90;;;;;;5016907;28;20510;-83
2021/01/11 00:59:51;;;;;;;27.73;18.60;;;2.60;99.90;;;;;;5017090;28;20210;-83
2021/01/11 01:02:19;;;;;;;26.70;17.60;;;2.70;99.90;;;;;;5016476;28;20202;-84
2021/01/11 01:04:45;;;;;;;28.57;17.27;;;2.70;99.90;;;;;;5016604;28;20457;-83
2021/01/11 01:07:15;;;;;;;25.65;17.55;;;2.70;99.90;;;;;;5016372;28;20910;-88
2021/01/11 01:09:42;;;;;;;24.23;16.83;;;2.70;99.90;;;;;;5016818;28;20313;-83
2021/01/11 01:12:12;;;;;;;26.83;17.20;;;2.60;99.90;;;;;;5012364;28;20836;-83
2021/01/11 01:14:38;;;;;;;75.97;38.07;;;2.70;99.90;;;;;;4997327;28;20455;-83
2021/01/11 01:17:04;;;;;;;25.43;18.20;;;2.70;99.90;;;;;;5011222;28;20474;-83
2021/01/11 01:19:31;;;;;;;23.73;16.63;;;2.60;99.90;;;;;;5016045;28;20552;-83
2021/01/11 01:21:57;;;;;;;25.73;17.58;;;2.60;99.90;;;;;;5016262;28;20297;-83
2021/01/11 01:24:23;;;;;;;26.50;17.38;;;2.60;99.90;;;;;;5015983;28;20289;-83
2021/01/11 01:26:50;;;;;;;26.63;17.50;;;2.60;99.90;;;;;;5016733;28;20297;-83
2021/01/11 01:29:17;;;;;;;22.07;16.97;;;2.60;99.90;;;;;;5016106;28;20580;-83
2021/01/11 01:31:43;;;;;;;25.00;19.20;;;2.60;99.90;;;;;;5016674;28;20476;-83
2021/01/11 01:34:09;;;;;;;28.80;18.50;;;2.40;99.90;;;;;;5016516;28;20461;-83
2021/01/11 01:36:36;;;;;;;30.43;18.10;;;2.50;99.90;;;;;;5015726;28;20231;-83
2021/01/11 01:39:02;;;;;;;24.35;17.90;;;2.50;99.90;;;;;;5016358;28;20461;-83
2021/01/11 01:41:29;;;;;;;30.47;19.33;;;2.60;99.90;;;;;;5016105;28;20213;-83
2021/01/11 01:43:59;;;;;;;28.35;19.48;;;2.50;99.90;;;;;;5016569;28;20459;-83
2021/01/11 01:46:30;;;;;;;26.85;16.90;;;2.50;99.90;;;;;;5015852;28;20234;-83
2021/01/11 01:48:57;;;;;;;26.10;17.10;;;2.40;99.90;;;;;;5016113;28;20268;-83
2021/01/11 01:51:25;;;;;;;32.53;16.60;;;2.40;99.90;;;;;;5015704;28;20624;-83
2021/01/11 01:53:53;;;;;;;27.80;18.42;;;2.50;99.90;;;;;;5015202;28;20458;-83
2021/01/11 01:56:23;;;;;;;28.27;18.53;;;2.40;99.90;;;;;;5015796;28;20205;-83
2021/01/11 01:58:49;;;;;;;25.80;18.88;;;2.40;99.90;;;;;;5016319;28;20454;-83
2021/01/11 02:01:17;;;;;;;33.70;21.00;;;2.40;99.90;;;;;;5016162;28;20301;-85
2021/01/11 02:03:43;;;;;;;33.00;19.47;;;2.30;99.90;;;;;;5015859;28;20202;-83
2021/01/11 02:06:09;;;;;;;23.33;17.90;;;2.30;99.90;;;;;;5016021;28;20476;-83
2021/01/11 02:08:45;;;;;;;29.60;18.50;;;2.30;99.90;;;;;;5015211;28;20955;-83
2021/01/11 02:11:23;;;;;;;29.63;20.27;;;2.30;99.90;;;;;;5015605;28;20490;-83
2021/01/11 02:14:07;;;;;;;28.77;18.48;;;2.30;99.90;;;;;;5000921;28;20282;-83
2021/01/11 02:16:43;;;;;;;26.50;17.00;;;2.40;99.90;;;;;;4995907;28;20687;-83
2021/01/11 02:19:40;;;;;;;29.73;20.25;;;2.40;99.90;;;;;;4995967;28;20204;-83
2021/01/11 02:22:13;;;;;;;34.97;20.58;;;2.40;99.90;;;;;;4996248;28;20290;-83
2021/01/11 02:25:08;;;;;;;28.53;19.27;;;2.40;99.90;;;;;;4995637;28;20198;-83
2021/01/11 02:27:40;;;;;;;26.27;18.00;;;2.40;99.90;;;;;;5004913;28;20453;-83
2021/01/11 02:30:15;;;;;;;30.02;19.35;;;2.50;99.90;;;;;;5015665;28;20226;-83
2021/01/11 02:32:46;;;;;;;28.73;18.20;;;2.50;99.90;;;;;;5014915;28;20330;-83
2021/01/11 02:35:14;;;;;;;29.17;18.23;;;2.40;99.90;;;;;;5015051;28;20233;-83
2021/01/11 02:37:41;;;;;;;26.63;18.60;;;2.40;99.90;;;;;;5014672;28;20209;-83
2021/01/11 02:40:12;;;;;;;30.57;20.40;;;2.40;99.90;;;;;;5015214;28;20206;-83
2021/01/11 02:42:39;;;;;;;26.52;18.67;;;2.40;99.90;;;;;;5015045;28;20787;-83
2021/01/11 02:45:08;;;;;;;30.43;20.23;;;2.40;99.90;;;;;;5015253;28;20241;-83
2021/01/11 02:47:49;;;;;;;31.70;18.60;;;2.40;99.90;;;;;;5014253;28;20680;-83
2021/01/11 02:50:24;;;;;;;29.40;20.77;;;2.40;99.90;;;;;;5014667;28;20214;-90
2021/01/11 02:53:00;;;;;;;32.77;21.73;;;2.40;99.90;;;;;;5015195;28;20574;-83
2021/01/11 02:55:34;;;;;;;33.10;21.20;;;2.30;99.90;;;;;;5014336;28;20477;-83
2021/01/11 02:58:06;;;;;;;32.85;21.05;;;2.20;99.90;;;;;;5014712;28;20695;-83
2021/01/11 03:00:40;;;;;;;31.52;20.50;;;2.20;99.90;;;;;;5004649;28;20210;-83
2021/01/11 03:03:12;;;;;;;34.80;21.67;;;2.30;99.90;;;;;;4994988;28;20348;-83
2021/01/11 03:05:39;;;;;;;31.60;22.20;;;2.20;99.90;;;;;;4994281;28;20282;-84
2021/01/11 03:08:06;;;;;;;29.05;20.20;;;2.30;99.90;;;;;;5011947;28;20205;-84
2021/01/11 03:10:32;;;;;;;31.35;21.08;;;2.30;99.90;;;;;;5014110;28;20205;-83
2021/01/11 03:12:59;;;;;;;32.25;21.55;;;2.30;99.90;;;;;;5009128;28;20590;-83
2021/01/11 03:15:28;;;;;;;31.95;21.95;;;2.30;99.90;;;;;;5011601;28;20210;-83
2021/01/11 03:17:54;;;;;;;32.45;20.40;;;2.30;99.90;;;;;;5014266;28;20226;-83
2021/01/11 03:20:21;;;;;;;30.73;20.17;;;2.20;99.90;;;;;;5013969;28;20292;-86
2021/01/11 03:22:47;;;;;;;32.95;21.48;;;2.20;99.90;;;;;;5014667;28;20209;-83
2021/01/11 03:25:14;;;;;;;33.13;22.20;;;2.20;99.90;;;;;;5014266;28;20291;-83
2021/01/11 03:27:41;;;;;;;31.98;21.45;;;2.20;99.90;;;;;;5013360;28;20205;-83
2021/01/11 03:30:08;;;;;;;30.10;19.70;;;2.30;99.90;;;;;;5014375;28;20236;-83
2021/01/11 03:32:35;;;;;;;38.97;22.23;;;2.20;99.90;;;;;;5013457;28;20201;-83
2021/01/11 03:35:01;;;;;;;29.85;19.65;;;2.20;99.90;;;;;;5013957;28;20489;-83
2021/01/11 03:37:28;;;;;;;32.88;21.58;;;2.30;99.90;;;;;;5013981;28;20316;-83
2021/01/11 03:39:55;;;;;;;34.42;22.10;;;2.20;99.90;;;;;;5013841;28;20238;-83
2021/01/11 03:42:21;;;;;;;38.05;22.50;;;2.10;99.90;;;;;;5013494;28;20617;-85
2021/01/11 03:44:48;;;;;;;34.60;23.38;;;2.10;99.90;;;;;;5013894;28;20341;-83
2021/01/11 03:47:14;;;;;;;36.42;23.33;;;2.10;99.90;;;;;;5014325;28;20265;-83
2021/01/11 03:49:41;;;;;;;34.28;22.95;;;2.00;99.90;;;;;;5013093;28;20240;-83
2021/01/11 03:52:07;;;;;;;38.90;22.27;;;2.00;99.90;;;;;;5014409;28;20544;-83
2021/01/11 03:54:34;;;;;;;37.78;22.90;;;2.00;99.90;;;;;;5013110;28;20206;-83
2021/01/11 03:57:01;;;;;;;38.75;24.40;;;2.10;99.90;;;;;;5014036;28;20289;-83
2021/01/11 03:59:30;;;;;;;40.75;24.73;;;2.00;99.90;;;;;;5013409;28;20291;-83
2021/01/11 04:01:57;;;;;;;36.33;24.83;;;1.90;99.90;;;;;;5013378;28;20293;-83
2021/01/11 04:04:23;;;;;;;32.70;23.63;;;2.00;99.90;;;;;;5013423;28;20293;-84
2021/01/11 04:06:53;;;;;;;33.47;21.73;;;2.00;99.90;;;;;;5014085;28;20264;-83
2021/01/11 04:09:19;;;;;;;34.35;20.63;;;1.90;99.90;;;;;;5013486;28;20222;-88
2021/01/11 04:11:47;;;;;;;28.42;18.80;;;2.00;99.90;;;;;;5013306;28;20614;-83
2021/01/11 04:14:13;;;;;;;30.90;21.67;;;2.00;99.90;;;;;;5013074;28;20199;-83
2021/01/11 04:16:40;;;;;;;35.58;20.83;;;2.00;99.90;;;;;;5015168;28;20252;-82
2021/01/11 04:19:07;;;;;;;31.27;21.13;;;1.80;99.90;;;;;;5017775;28;20213;-83
2021/01/11 04:21:33;;;;;;;30.23;21.70;;;1.90;99.90;;;;;;5016855;28;20300;-82
2021/01/11 04:23:59;;;;;;;32.47;21.20;;;1.90;99.90;;;;;;5017351;28;20282;-83
2021/01/11 04:26:26;;;;;;;29.15;20.52;;;1.90;99.90;;;;;;5016919;28;20206;-82
2021/01/11 04:28:53;;;;;;;30.67;20.02;;;1.80;99.90;;;;;;5017071;28;20304;-83
2021/01/11 04:31:22;;;;;;;36.75;22.35;;;1.80;99.90;;;;;;5017276;28;20205;-87
2021/01/11 04:33:48;;;;;;;38.70;23.23;;;1.80;99.90;;;;;;5017032;28;20208;-82
2021/01/11 04:36:14;;;;;;;33.38;21.67;;;1.90;99.90;;;;;;5016679;28;20235;-82
2021/01/11 04:38:41;;;;;;;36.40;20.98;;;1.90;99.90;;;;;;5016692;28;20574;-83
2021/01/11 04:41:11;;;;;;;36.53;24.58;;;1.90;99.90;;;;;;5017478;28;20214;-82
2021/01/11 04:43:43;;;;;;;30.02;19.58;;;1.90;99.90;;;;;;5016423;28;20287;-83
2021/01/11 04:46:13;;;;;;;35.63;22.63;;;2.00;99.90;;;;;;5010532;28;20207;-83
2021/01/11 04:48:39;;;;;;;48.78;24.13;;;2.00;99.90;;;;;;5007041;28;20281;-82
2021/01/11 04:51:07;;;;;;;38.10;23.80;;;2.00;99.90;;;;;;4997353;28;20294;-82
2021/01/11 04:53:34;;;;;;;33.83;23.38;;;2.00;99.90;;;;;;4996694;28;20205;-82
2021/01/11 04:56:03;;;;;;;33.88;23.20;;;1.90;99.90;;;;;;4997407;28;20294;-82
2021/01/11 04:58:53;;;;;;;37.92;24.85;;;2.00;99.90;;;;;;5010205;28;20609;-82
2021/01/11 05:01:23;;;;;;;38.60;25.13;;;1.90;99.90;;;;;;5017120;28;20286;-82
2021/01/11 05:03:50;;;;;;;39.13;26.70;;;2.00;99.90;;;;;;5017039;28;20210;-82
2021/01/11 05:06:18;;;;;;;39.33;25.17;;;1.90;99.90;;;;;;5017199;28;20216;-82
2021/01/11 05:08:45;;;;;;;40.47;26.00;;;1.90;99.90;;;;;;5016197;28;20224;-82
2021/01/11 05:11:14;;;;;;;38.80;27.15;;;1.90;99.90;;;;;;5017342;28;20230;-81
2021/01/11 05:13:42;;;;;;;42.22;26.08;;;1.80;99.90;;;;;;5016078;28;20314;-81
2021/01/11 05:16:13;;;;;;;37.20;25.65;;;1.70;99.90;;;;;;5016925;28;20203;-82
2021/01/11 05:18:41;;;;;;;41.97;24.67;;;1.70;99.90;;;;;;5016868;28;20293;-82
2021/01/11 05:21:08;;;;;;;37.63;25.00;;;1.80;99.90;;;;;;5017332;28;20556;-81
2021/01/11 05:23:37;;;;;;;35.55;24.27;;;1.70;99.90;;;;;;5006661;28;20239;-81
2021/01/11 05:26:15;;;;;;;36.72;25.83;;;1.80;99.90;;;;;;4997915;28;20299;-82
2021/01/11 05:28:42;;;;;;;36.78;24.73;;;1.70;99.90;;;;;;5003801;28;20300;-81
2021/01/11 05:31:10;;;;;;;38.78;26.88;;;1.70;99.90;;;;;;5017510;28;20214;-82
2021/01/11 05:33:52;;;;;;;36.22;24.48;;;1.60;99.90;;;;;;5016695;28;20213;-82
2021/01/11 05:36:25;;;;;;;36.67;24.60;;;1.70;99.90;;;;;;5016559;28;20227;-81
2021/01/11 05:38:54;;;;;;;36.50;25.38;;;1.70;99.90;;;;;;5017506;28;20612;-81
2021/01/11 05:41:23;;;;;;;38.22;26.00;;;1.60;99.90;;;;;;5016281;28;20287;-82
2021/01/11 05:44:09;;;;;;;41.65;25.95;;;1.70;99.90;;;;;;5016249;28;20657;-82
2021/01/11 05:46:36;;;;;;;41.70;27.58;;;1.60;99.90;;;;;;5016350;28;20286;-82
2021/01/11 05:49:04;;;;;;;33.42;23.90;;;1.70;99.90;;;;;;5016999;28;20333;-82
2021/01/11 05:51:33;;;;;;;34.93;24.37;;;1.60;99.90;;;;;;5015997;28;20699;-82
2021/01/11 05:54:00;;;;;;;32.97;22.70;;;1.60;99.90;;;;;;5016684;28;20511;-82
2021/01/11 05:56:27;;;;;;;37.55;24.30;;;1.60;99.90;;;;;;5016106;28;20264;-85
2021/01/11 05:59:09;;;;;;;32.45;23.90;;;1.70;99.90;;;;;;5016537;28;20300;-82
2021/01/11 06:01:37;;;;;;;35.65;21.45;;;1.70;99.90;;;;;;5015687;28;20206;-82
2021/01/11 06:04:04;;;;;;;33.03;23.45;;;1.70;99.90;;;;;;5018011;28;20207;-82
2021/01/11 06:06:31;;;;;;;35.55;22.27;;;1.80;99.90;;;;;;5016534;28;20221;-83
2021/01/11 06:08:58;;;;;;;38.03;24.17;;;1.80;99.90;;;;;;5016447;28;20231;-82
2021/01/11 06:11:26;;;;;;;36.35;23.42;;;1.70;99.90;;;;;;5016676;28;20340;-84
2021/01/11 06:13:54;;;;;;;34.40;21.38;;;1.60;99.90;;;;;;5015914;28;20298;-82
2021/01/11 06:16:21;;;;;;;33.85;21.40;;;1.70;99.90;;;;;;5016282;28;20628;-82
2021/01/11 06:18:49;;;;;;;33.15;20.95;;;1.70;99.90;;;;;;5015886;28;20634;-83
2021/01/11 06:21:16;;;;;;;35.97;22.60;;;1.60;99.90;;;;;;5016406;28;20267;-82
2021/01/11 06:23:45;;;;;;;35.42;22.05;;;1.50;99.90;;;;;;5015939;28;20290;-82
2021/01/11 06:26:33;;;;;;;33.35;22.55;;;1.60;99.90;;;;;;5015880;28;20631;-82
2021/01/11 06:29:00;;;;;;;37.00;22.60;;;1.70;99.90;;;;;;5015704;28;20218;-81
2021/01/11 06:31:28;;;;;;;37.97;22.42;;;1.80;99.90;;;;;;5015839;28;20326;-87
2021/01/11 06:33:55;;;;;;;36.15;22.67;;;1.80;99.90;;;;;;5015593;28;20205;-82
2021/01/11 06:36:24;;;;;;;36.80;22.73;;;1.80;99.90;;;;;;5015609;28;20737;-82
2021/01/11 06:38:53;;;;;;;38.10;24.02;;;1.80;99.90;;;;;;5014855;28;20209;-82
2021/01/11 06:41:20;;;;;;;36.22;22.20;;;1.70;99.90;;;;;;5015480;28;20661;-81
2021/01/11 06:43:48;;;;;;;36.45;22.20;;;1.80;99.90;;;;;;5015224;28;20209;-82
2021/01/11 06:46:45;;;;;;;37.03;24.17;;;1.80;99.90;;;;;;5015532;28;20297;-82
2021/01/11 06:49:25;;;;;;;31.20;21.17;;;1.80;99.90;;;;;;5015872;28;20313;-81
2021/01/11 06:52:03;;;;;;;35.88;22.85;;;1.90;99.90;;;;;;5016093;28;20217;-81
2021/01/11 06:54:38;;;;;;;39.13;25.33;;;1.90;99.90;;;;;;5015665;28;20251;-84
2021/01/11 06:57:11;;;;;;;33.75;21.70;;;1.90;99.90;;;;;;5016083;28;20256;-80
2021/01/11 06:59:38;;;;;;;35.97;22.27;;;1.90;99.90;;;;;;5015507;28;20215;-80
2021/01/11 07:02:21;;;;;;;36.33;22.05;;;1.90;99.90;;;;;;5015742;28;20207;-80
2021/01/11 07:04:48;;;;;;;35.05;21.80;;;1.90;99.90;;;;;;5015277;28;20289;-80
2021/01/11 07:07:22;;;;;;;33.72;20.13;;;1.80;99.90;;;;;;5015203;28;20199;-80
2021/01/11 07:09:51;;;;;;;31.67;20.00;;;1.90;99.90;;;;;;5014407;28;20264;-80
2021/01/11 07:12:19;;;;;;;30.90;20.10;;;2.00;99.90;;;;;;5014619;28;20201;-79
2021/01/11 07:15:06;;;;;;;32.40;20.35;;;2.00;99.90;;;;;;5010823;28;20524;-79
2021/01/11 07:17:40;;;;;;;33.90;23.55;;;2.00;99.90;;;;;;4996060;28;20291;-80
2021/01/11 07:20:09;;;;;;;36.65;24.42;;;2.00;99.90;;;;;;5014632;28;20237;-79
2021/01/11 07:22:38;;;;;;;32.95;20.35;;;2.00;99.90;;;;;;5013743;28;20215;-78
2021/01/11 07:25:25;;;;;;;41.22;22.90;;;2.00;99.90;;;;;;5014280;28;20397;-80
2021/01/11 07:27:59;;;;;;;39.38;23.92;;;2.00;99.90;;;;;;5014778;28;20197;-80
2021/01/11 07:30:27;;;;;;;31.92;23.05;;;2.00;99.90;;;;;;5015708;28;20277;-82
2021/01/11 07:32:56;;;;;;;31.52;22.30;;;2.00;99.90;;;;;;5015907;28;20255;-79
2021/01/11 07:35:23;;;;;;;32.55;22.52;;;2.00;99.90;;;;;;5016662;28;20573;-80
2021/01/11 07:37:49;;;;;;;31.08;21.92;;;2.00;99.90;;;;;;5016169;28;20237;-82
2021/01/11 07:40:18;;;;;;;35.25;24.90;;;2.00;99.90;;;;;;5016689;28;20267;-81
2021/01/11 07:42:50;;;;;;;34.58;23.85;;;2.00;99.90;;;;;;5016441;28;20242;-81
2021/01/11 07:45:19;;;;;;;41.53;24.38;;;2.00;99.90;;;;;;5016198;28;20244;-82
2021/01/11 07:47:52;;;;;;;27.58;20.90;;;2.00;99.90;;;;;;5016760;28;20212;-81
2021/01/11 07:50:20;;;;;;;39.90;24.38;;;2.00;99.90;;;;;;5016204;28;20691;-80
2021/01/11 07:52:58;;;;;;;35.90;21.77;;;1.90;99.90;;;;;;5017957;28;20260;-81
2021/01/11 07:55:40;;;;;;;34.25;23.92;;;2.00;99.90;;;;;;5017676;28;20520;-81
2021/01/11 07:58:32;;;;;;;33.03;20.30;;;2.10;99.90;;;;;;5019294;28;20219;-81
2021/01/11 08:01:17;;;;;;;35.33;22.13;;;2.10;99.90;;;;;;5018719;28;20247;-82
2021/01/11 08:04:12;;;;;;;32.42;22.15;;;2.00;99.90;;;;;;5019033;28;20190;-80
2021/01/11 08:06:56;;;;;;;32.35;21.30;;;2.00;99.90;;;;;;5019039;28;20241;-80
2021/01/11 08:09:48;;;;;;;28.95;19.85;;;2.10;99.90;;;;;;5018733;28;20215;-82
2021/01/11 08:12:30;;;;;;;28.23;19.93;;;2.10;99.90;;;;;;5014266;28;20237;-81
2021/01/11 08:15:07;;;;;;;29.77;21.08;;;2.10;99.90;;;;;;5000047;28;20464;-81
2021/01/11 08:17:49;;;;;;;32.35;20.58;;;2.10;99.90;;;;;;5013974;28;20198;-82
2021/01/11 08:20:28;;;;;;;30.13;21.38;;;2.20;99.90;;;;;;4998890;28;20207;-81
2021/01/11 08:23:16;;;;;;;29.77;20.55;;;2.20;99.90;;;;;;4996980;28;20210;-80
2021/01/11 08:26:01;;;;;;;28.85;20.50;;;2.20;99.90;;;;;;4998360;28;20196;-82
2021/01/11 08:29:03;;;;;;;32.47;20.02;;;2.20;99.90;;;;;;5018274;28;20260;-81
2021/01/11 08:31:37;;;;;;;28.77;18.90;;;2.20;99.90;;;;;;5015409;28;20202;-94
2021/01/11 08:34:05;;;;;;;32.67;20.63;;;2.30;99.90;;;;;;5014681;28;20256;-82
2021/01/11 08:36:35;;;;;;;32.28;21.77;;;2.30;99.90;;;;;;5007904;28;20288;-93
2021/01/11 08:39:21;;;;;;;28.15;19.83;;;2.30;99.90;;;;;;5016924;28;20251;-87
2021/01/11 08:41:57;;;;;;;32.83;20.83;;;2.30;99.90;;;;;;5034762;28;20198;-82
2021/01/11 08:44:33;;;;;;;32.10;19.08;;;2.30;99.90;;;;;;5034717;28;20242;-82
2021/01/11 08:47:03;;;;;;;25.67;17.75;;;2.30;99.90;;;;;;5035705;28;20221;-82
2021/01/11 08:49:35;;;;;;;28.90;18.88;;;2.20;99.90;;;;;;5035271;28;20749;-81
2021/01/11 08:52:13;;;;;;;32.40;20.30;;;2.20;99.90;;;;;;5035221;28;20201;-81
2021/01/11 08:54:46;;;;;;;27.05;18.10;;;2.30;99.90;;;;;;5034474;28;20419;-81
2021/01/11 08:57:20;;;;;;;25.27;17.50;;;2.30;99.90;;;;;;5034271;28;20239;-80
2021/01/11 08:59:49;;;;;;;24.77;16.70;;;2.40;99.90;;;;;;5034005;28;20447;-82
2021/01/11 09:02:37;;;;;;;25.05;18.10;;;2.40;99.90;;;;;;5034067;28;20554;-86
2021/01/11 09:05:16;;;;;;;27.58;17.05;;;2.40;99.90;;;;;;5037895;28;20190;-82
2021/01/11 09:07:48;;;;;;;23.38;15.95;;;2.40;99.90;;;;;;5037226;28;20198;-81
2021/01/11 09:10:31;;;;;;;25.37;16.03;;;2.50;99.90;;;;;;5027142;28;20257;-81
2021/01/11 09:13:18;;;;;;;28.48;16.52;;;2.50;99.90;;;;;;4998700;28;20533;-81
2021/01/11 09:15:53;;;;;;;23.17;17.37;;;2.60;99.90;;;;;;4996611;28;20242;-81
2021/01/11 09:18:23;;;;;;;23.08;16.77;;;2.70;99.90;;;;;;5009225;28;20445;-81
2021/01/11 09:20:52;;;;;;;23.83;15.95;;;2.60;99.90;;;;;;5017761;28;20271;-82
2021/01/11 09:23:26;;;;;;;23.38;16.20;;;2.70;99.90;;;;;;5018002;28;20207;-82
2021/01/11 09:25:53;;;;;;;29.92;19.10;;;2.70;99.90;;;;;;5017271;28;20208;-82
2021/01/11 09:28:20;;;;;;;25.07;18.00;;;2.70;99.90;;;;;;5017901;28;20602;-82
2021/01/11 09:30:50;;;;;;;26.25;18.40;;;2.80;99.90;;;;;;5017647;28;20571;-82
2021/01/11 09:33:21;;;;;;;27.42;17.73;;;2.80;99.90;;;;;;5013000;28;20642;-82
2021/01/11 09:35:51;;;;;;;24.63;17.13;;;2.50;99.90;;;;;;5016504;28;20285;-81
2021/01/11 09:38:20;;;;;;;26.45;17.08;;;2.50;99.90;;;;;;5015870;28;20321;-87
2021/01/11 09:40:48;;;;;;;27.02;18.00;;;2.60;99.90;;;;;;5024765;28;20221;-83
2021/01/11 09:43:20;;;;;;;26.58;16.60;;;2.50;99.90;;;;;;5033726;28;20201;-80
2021/01/11 09:45:51;;;;;;;24.92;16.92;;;2.50;99.90;;;;;;5034663;28;20213;-79
2021/01/11 09:48:24;;;;;;;30.92;17.73;;;2.40;99.90;;;;;;5026071;28;20235;-81
2021/01/11 09:50:54;;;;;;;26.15;15.30;;;2.50;99.90;;;;;;5016887;28;20217;-81
2021/01/11 09:53:27;;;;;;;26.20;17.25;;;2.50;99.90;;;;;;5016841;28;20245;-82
2021/01/11 09:56:03;;;;;;;26.67;16.80;;;2.50;99.90;;;;;;5016631;28;20195;-80
2021/01/11 09:58:32;;;;;;;25.52;15.60;;;2.60;99.90;;;;;;5016910;28;20252;-81
2021/01/11 10:01:05;;;;;;;23.65;15.63;;;2.50;99.90;;;;;;5025831;28;20263;-80
2021/01/11 10:03:38;;;;;;;20.65;15.60;;;2.60;99.90;;;;;;5034155;28;20214;-81
2021/01/11 10:06:08;;;;;;;22.02;15.35;;;2.70;99.90;;;;;;5017540;28;20216;-80
2021/01/11 10:08:46;;;;;;;22.25;15.00;;;2.70;99.90;;;;;;5017498;28;20226;-80
2021/01/11 10:11:18;;;;;;;23.42;14.05;;;2.50;99.90;;;;;;5016870;28;20228;-80
2021/01/11 10:13:47;;;;;;;17.98;12.80;;;2.70;99.90;;;;;;5015177;28;20246;-79
2021/01/11 10:16:22;;;;;;;23.93;14.83;;;2.70;99.90;;;;;;5016526;28;20207;-81
2021/01/11 10:18:54;;;;;;;24.27;13.30;;;2.70;99.90;;;;;;5015876;28;20473;-81
2021/01/11 10:21:25;;;;;;;18.17;13.50;;;2.70;99.90;;;;;;5016854;28;20191;-80
2021/01/11 10:23:55;;;;;;;20.10;12.43;;;2.80;99.90;;;;;;5016579;28;20763;-80
2021/01/11 10:26:26;;;;;;;20.10;13.17;;;2.90;99.90;;;;;;5017064;28;20472;-79
2021/01/11 10:28:57;;;;;;;23.48;11.90;;;2.90;99.90;;;;;;5015554;28;20470;-79
2021/01/11 10:31:25;;;;;;;19.30;12.37;;;2.90;99.90;;;;;;5016558;28;20641;-80
2021/01/11 10:33:53;;;;;;;21.73;12.60;;;2.90;99.90;;;;;;5024076;28;20453;-80
2021/01/11 10:36:20;;;;;;;18.47;12.47;;;2.90;99.90;;;;;;5017079;28;20489;-81
2021/01/11 10:38:46;;;;;;;19.33;12.23;;;2.80;99.90;;;;;;5015704;28;20462;-80
2021/01/11 10:41:16;;;;;;;18.05;12.05;;;2.70;99.90;;;;;;5029514;28;20855;-81
2021/01/11 10:43:43;;;;;;;15.47;10.87;;;2.90;99.90;;;;;;5021875;28;20615;-81
2021/01/11 10:46:12;;;;;;;19.30;11.73;;;2.90;99.90;;;;;;5015431;28;20544;-81
2021/01/11 10:48:39;;;;;;;14.75;11.05;;;2.90;99.90;;;;;;5014780;28;20203;-82
2021/01/11 10:51:10;;;;;;;15.93;11.50;;;2.90;99.90;;;;;;5015917;28;20289;-81
2021/01/11 10:53:41;;;;;;;17.60;12.03;;;2.80;99.90;;;;;;5015054;28;20521;-93
2021/01/11 10:56:08;;;;;;;18.90;12.10;;;2.80;99.90;;;;;;5012250;28;20474;-80
2021/01/11 10:58:38;;;;;;;18.30;10.17;;;2.80;99.90;;;;;;5013687;28;20468;-80
2021/01/11 11:01:10;;;;;;;22.77;13.17;;;2.80;99.90;;;;;;5014229;28;20544;-83
2021/01/11 11:03:40;;;;;;;18.70;12.05;;;2.80;99.90;;;;;;5014516;28;20532;-82
2021/01/11 11:06:10;;;;;;;21.33;12.30;;;2.80;99.90;;;;;;5012512;28;20273;-88
2021/01/11 11:08:41;;;;;;;20.20;12.87;;;2.70;99.90;;;;;;5013361;28;20465;-81
2021/01/11 11:11:08;;;;;;;18.50;13.40;;;2.70;99.90;;;;;;5014170;28;20801;-82
2021/01/11 11:13:34;;;;;;;18.20;12.10;;;2.90;99.90;;;;;;5014059;28;20533;-82
2021/01/11 11:16:06;;;;;;;19.10;10.90;;;2.90;99.90;;;;;;5015634;28;20789;-82
2021/01/11 11:18:35;;;;;;;17.37;12.17;;;2.80;99.90;;;;;;5027635;28;20460;-80
2021/01/11 11:21:02;;;;;;;18.27;12.48;;;2.70;99.90;;;;;;5016211;28;20454;-81
2021/01/11 11:23:34;;;;;;;22.52;11.98;;;2.70;99.90;;;;;;5018568;28;20286;-80
2021/01/11 11:26:03;;;;;;;16.77;11.20;;;2.60;99.90;;;;;;5034680;28;20713;-81
2021/01/11 11:28:30;;;;;;;20.48;12.77;;;2.70;99.90;;;;;;5034153;28;20811;-82
2021/01/11 11:30:57;;;;;;;16.10;11.37;;;2.60;99.90;;;;;;5032530;28;20256;-80
2021/01/11 11:33:26;;;;;;;16.13;10.70;;;2.70;99.90;;;;;;5014449;28;20485;-80
2021/01/11 11:35:53;;;;;;;17.07;11.30;;;2.70;99.90;;;;;;5003291;28;20294;-81
2021/01/11 11:38:21;;;;;;;18.30;12.30;;;2.70;99.90;;;;;;5012716;28;20438;-81
2021/01/11 11:40:54;;;;;;;16.63;10.80;;;2.70;99.90;;;;;;5014276;28;20213;-81
2021/01/11 11:43:21;;;;;;;16.83;11.53;;;2.70;99.90;;;;;;5030985;28;20507;-81
2021/01/11 11:45:49;;;;;;;19.83;12.33;;;2.70;99.90;;;;;;5018003;28;20463;-82
2021/01/11 11:48:17;;;;;;;15.20;10.17;;;2.70;99.90;;;;;;5027553;28;20445;-82
2021/01/11 11:50:47;;;;;;;18.30;10.70;;;2.80;99.90;;;;;;5013549;28;20489;-82
2021/01/11 11:53:14;;;;;;;16.50;12.20;;;2.80;99.90;;;;;;5025071;28;20518;-81
2021/01/11 11:55:41;;;;;;;17.83;11.63;;;2.80;99.90;;;;;;5033435;28;20444;-81
2021/01/11 11:58:08;;;;;;;16.50;11.60;;;2.80;99.90;;;;;;5015821;28;20512;-81
2021/01/11 12:00:34;;;;;;;13.73;10.25;;;2.90;99.90;;;;;;5016430;28;20450;-81
2021/01/11 12:03:01;;;;;;;18.30;9.90;;;2.90;99.90;;;;;;5012958;28;20199;-81
2021/01/11 12:05:31;;;;;;;21.07;10.80;;;2.90;99.90;;;;;;5016232;28;20947;-82
2021/01/11 12:07:58;;;;;;;14.00;9.80;;;3.10;99.90;;;;;;5007746;28;20457;-82
2021/01/11 12:10:26;;;;;;;14.93;9.87;;;3.00;99.90;;;;;;5020157;28;20495;-82
2021/01/11 12:12:54;;;;;;;12.27;9.10;;;3.20;99.90;;;;;;5030727;28;20530;-82
2021/01/11 12:15:21;;;;;;;13.60;9.17;;;3.20;99.90;;;;;;5029576;28;20449;-81
2021/01/11 12:17:48;;;;;;;13.80;8.38;;;3.10;99.90;;;;;;5030206;28;20516;-82
2021/01/11 12:20:15;;;;;;;12.00;8.23;;;3.10;99.90;;;;;;5013783;28;20306;-82
2021/01/11 12:22:44;;;;;;;15.10;9.00;;;3.10;99.90;;;;;;5013191;28;20600;-82
2021/01/11 12:25:14;;;;;;;16.20;9.60;;;3.20;99.90;;;;;;5012981;28;20548;-82
2021/01/11 12:27:40;;;;;;;14.63;9.80;;;3.30;99.90;;;;;;5014223;28;20554;-86
2021/01/11 12:30:07;;;;;;;15.10;9.60;;;3.30;99.90;;;;;;5001201;28;20493;-82
2021/01/11 12:32:42;;;;;;;15.20;9.10;;;3.30;99.90;;;;;;5014780;28;20462;-82
2021/01/11 12:35:14;;;;;;;13.03;9.97;;;3.40;99.90;;;;;;5007606;28;20458;-82
2021/01/11 12:37:44;;;;;;;11.50;9.13;;;3.30;99.90;;;;;;5016145;28;20599;-82
2021/01/11 12:40:17;;;;;;;11.63;8.17;;;3.40;99.90;;;;;;5023293;28;20461;-83
2021/01/11 12:42:46;;;;;;;10.73;8.70;;;3.40;99.90;;;;;;5016452;28;20772;-83
2021/01/11 12:45:15;;;;;;;10.37;7.93;;;3.50;99.90;;;;;;5021655;28;20464;-82
2021/01/11 12:47:44;;;;;;;15.00;10.40;;;3.50;99.90;;;;;;5021192;28;20581;-83
2021/01/11 12:50:11;;;;;;;15.07;8.77;;;3.50;99.90;;;;;;5023494;28;20585;-81
2021/01/11 12:52:39;;;;;;;11.97;8.57;;;3.50;99.90;;;;;;5033246;28;20455;-82
2021/01/11 12:55:11;;;;;;;9.17;7.20;;;3.50;99.90;;;;;;5018246;28;20788;-81